Time;durP1;ratioP1;P1;durP2;ratioP2;P2;SDS_P1;SDS_P2;PMS_P1;PMS_P2;Temp;Humidity;BMP_temperature;BMP_pressure;BME280_temperature;BME280_humidity;BME280_pressure;Samples;Min_cycle;Max_cycle;Signal;HPM_P1;HPM_P2
2021/12/29 00:01:38;;;;;;;68.20;48.10;;;;;;;-1.22;74.13;99097.55;110009;1285;21974;-84
2021/12/29 00:04:40;;;;;;;;;;;;;;;;;;;;;
2021/12/29 00:07:21;;;;;;;59.20;45.60;;;;;;;-1.22;74.38;99101.48;109955;1288;22211;-84
2021/12/29 00:09:59;;;;;;;63.70;50.00;;;;;;;-1.24;74.34;99100.88;109877;1289;21887;-84
2021/12/29 00:12:38;;;;;;;58.30;47.00;;;;;;;-1.25;74.32;99091.25;109888;1289;21949;-82
2021/12/29 00:15:14;;;;;;;58.00;46.30;;;;;;;-1.28;74.41;99085.77;109932;1287;21908;-82
2021/12/29 00:17:46;;;;;;;61.00;47.20;;;;;;;-1.25;74.50;99090.34;109445;1294;21922;-82
2021/12/29 00:20:20;;;;;;;60.60;47.10;;;;;;;-1.25;74.53;99086.55;109746;1294;21947;-82
2021/12/29 00:22:52;;;;;;;61.40;47.40;;;;;;;-1.23;74.55;99090.38;109771;1292;21996;-82
2021/12/29 00:25:25;;;;;;;60.50;47.10;;;;;;;-1.24;74.44;99089.42;109663;1295;21943;-81
2021/12/29 00:27:59;;;;;;;61.00;45.50;;;;;;;-1.21;74.64;99088.85;109709;1292;21990;-82
2021/12/29 00:30:55;;;;;;;65.20;49.30;;;;;;;-1.17;74.62;99083.17;109142;1298;22356;-84
2021/12/29 00:34:59;;;;;;;;;;;;;;;;;;;;;
2021/12/29 00:38:03;;;;;;;61.30;47.20;;;;;;;-1.15;74.47;99077.51;105832;1288;22417;-82
2021/12/29 00:40:58;;;;;;;64.80;49.30;;;;;;;-1.13;74.47;99075.13;109910;1288;22342;-82
2021/12/29 00:43:47;;;;;;;64.90;49.30;;;;;;;-1.09;74.47;99078.09;109663;1295;22265;-82
2021/12/29 00:46:39;;;;;;;64.40;49.40;;;;;;;-1.04;74.62;99072.16;109139;1294;21890;-82
2021/12/29 00:49:14;;;;;;;69.80;49.70;;;;;;;-1.01;74.39;99074.46;108709;1298;21902;-82
2021/12/29 00:51:44;;;;;;;70.40;51.90;;;;;;;-0.99;74.36;99075.26;108869;1298;22452;-82
2021/12/29 00:54:14;;;;;;;63.20;48.60;;;;;;;-0.95;74.34;99078.77;108972;1297;21973;-82
2021/12/29 00:56:47;;;;;;;65.10;49.70;;;;;;;-0.91;74.36;99083.65;108352;1303;21886;-82
2021/12/29 00:59:24;;;;;;;75.20;55.80;;;;;;;-0.88;74.29;99084.06;108787;1301;22289;-82
2021/12/29 01:01:54;;;;;;;69.00;51.70;;;;;;;-0.84;74.39;99083.27;108622;1300;21992;-82
2021/12/29 01:04:30;;;;;;;72.10;52.80;;;;;;;-0.84;74.21;99087.91;108535;1301;22165;-81
2021/12/29 01:06:59;;;;;;;66.00;50.40;;;;;;;-0.88;74.14;99087.04;107798;1306;21843;-81
2021/12/29 01:09:32;;;;;;;61.00;48.20;;;;;;;-0.92;74.16;99092.23;108409;1303;21909;-81
2021/12/29 01:12:05;;;;;;;;;;;;;;;-0.94;74.29;99096.65;108195;1303;22036;-80
2021/12/29 01:14:39;;;;;;;65.90;48.20;;;;;;;-1.04;74.28;99095.38;108564;1300;21995;-80
2021/12/29 01:17:12;;;;;;;61.60;46.30;;;;;;;-1.05;74.32;99098.83;108503;1301;21911;-81
2021/12/29 01:19:44;;;;;;;60.70;44.90;;;;;;;-1.09;74.34;99096.02;107773;1306;22299;-80
2021/12/29 01:22:14;;;;;;;62.70;46.50;;;;;;;-1.08;74.45;99097.65;107841;1306;22035;-80
2021/12/29 01:24:47;;;;;;;59.70;45.70;;;;;;;-1.06;74.41;99099.40;107894;1305;21912;-80
2021/12/29 01:27:18;;;;;;;68.80;49.30;;;;;;;-1.01;74.53;99106.05;107978;1303;22297;-80
2021/12/29 01:29:48;;;;;;;58.70;47.80;;;;;;;-0.96;74.50;99105.31;108592;1303;21891;-80
2021/12/29 01:32:19;;;;;;;63.20;48.70;;;;;;;-0.91;74.58;99106.30;109049;1296;21946;-80
2021/12/29 01:34:50;;;;;;;60.40;46.90;;;;;;;-0.83;74.39;99113.40;109287;1297;22014;-81
2021/12/29 01:37:23;;;;;;;55.00;44.50;;;;;;;-0.80;74.25;99110.40;109139;1289;22450;-82
2021/12/29 01:39:53;;;;;;;61.10;47.00;;;;;;;-0.82;74.11;99104.52;109911;1288;21867;-82
2021/12/29 01:42:26;;;;;;;58.20;46.00;;;;;;;-0.84;74.13;99097.92;109893;1289;21903;-82
2021/12/29 01:44:56;;;;;;;63.80;48.00;;;;;;;-0.79;74.17;99097.66;109846;1288;21888;-81
2021/12/29 01:47:36;;;;;;;60.40;48.00;;;;;;;-0.75;74.00;99099.63;109927;1286;22414;-82
2021/12/29 01:50:08;;;;;;;60.80;44.50;;;;;;;-0.75;74.04;99096.31;109921;1288;21933;-82
2021/12/29 01:53:06;;;;;;;;;;;;;;;;;;;;;
2021/12/29 01:59:39;;;;;;;;;;;;;;;;;;;;;
2021/12/29 02:02:40;;;;;;;57.20;44.40;;;;;;;-0.71;74.11;99106.93;109974;1288;21998;-87
2021/12/29 02:05:45;;;;;;;65.80;50.30;;;;;;;-0.79;73.90;99105.31;110175;1284;21909;-86
2021/12/29 02:12:10;;;;;;;59.40;47.60;;;;;;;-0.89;74.08;99106.67;109979;1288;21921;-87
2021/12/29 02:15:24;;;;;;;;;;;;;;;;;;;;;
2021/12/29 02:22:19;;;;;;;;;;;;;;;;;;;;;
2021/12/29 02:28:14;;;;;;;;;;;;;;;;;;;;;
2021/12/29 02:31:26;;;;;;;63.80;47.90;;;;;;;-0.82;74.54;99106.30;110024;1286;21986;-87
2021/12/29 02:35:17;;;;;;;59.00;45.90;;;;;;;-0.84;74.56;99107.66;109944;1289;21986;-85
2021/12/29 02:38:12;;;;;;;66.20;47.80;;;;;;;-0.83;74.57;99112.06;109942;1288;21841;-83
2021/12/29 02:40:49;;;;;;;62.30;47.70;;;;;;;-0.84;74.55;99114.77;109869;1288;21918;-85
2021/12/29 02:43:43;;;;;;;65.40;49.30;;;;;;;-0.86;74.49;99116.11;109182;1294;21914;-86
2021/12/29 02:46:50;;;;;;;62.40;48.50;;;;;;;-0.86;74.69;99114.48;110096;1286;21893;-85
2021/12/29 02:49:25;;;;;;;66.30;47.70;;;;;;;-0.82;74.66;99118.86;110010;1286;21993;-85
2021/12/29 02:51:59;;;;;;;63.90;50.30;;;;;;;-0.82;74.72;99110.72;110007;1286;21958;-84
2021/12/29 02:54:31;;;;;;;66.10;49.40;;;;;;;-0.72;74.74;99115.30;109794;1291;21921;-83
2021/12/29 02:57:11;;;;;;;60.60;46.40;;;;;;;-0.68;74.73;99112.52;108729;1298;21979;-84
2021/12/29 02:59:48;;;;;;;63.80;46.70;;;;;;;-0.64;74.75;99111.89;108908;1298;21899;-84
2021/12/29 03:02:23;;;;;;;60.70;46.90;;;;;;;-0.60;74.78;99106.52;108618;1303;22290;-84
2021/12/29 03:04:58;;;;;;;62.10;47.30;;;;;;;-0.59;74.86;99101.39;108004;1309;22401;-83
2021/12/29 03:07:38;;;;;;;60.20;46.60;;;;;;;-0.55;74.79;99103.48;107980;1307;21951;-85
2021/12/29 03:10:10;;;;;;;64.20;50.10;;;;;;;-0.51;74.91;99106.42;107511;1314;21867;-82
2021/12/29 03:12:40;;;;;;;58.90;45.20;;;;;;;-0.45;74.95;99108.91;107424;1309;21960;-80
2021/12/29 03:15:10;;;;;;;61.80;47.40;;;;;;;-0.43;74.89;99100.79;108135;1303;22046;-81
2021/12/29 03:17:44;;;;;;;58.60;47.30;;;;;;;-0.40;75.01;99106.23;108190;1307;22027;-80
2021/12/29 03:20:14;;;;;;;61.20;46.80;;;;;;;-0.36;75.06;99110.04;107671;1306;21901;-83
2021/12/29 03:22:43;;;;;;;55.60;46.00;;;;;;;-0.31;75.05;99109.98;107933;1306;22616;-82
2021/12/29 03:25:14;;;;;;;59.30;48.50;;;;;;;-0.27;75.08;99108.04;108183;1306;22402;-81
2021/12/29 03:27:50;;;;;;;62.50;48.60;;;;;;;-0.22;74.91;99107.67;107918;1304;22394;-82
2021/12/29 03:30:20;;;;;;;56.50;45.20;;;;;;;-0.20;75.01;99103.70;108599;1301;22337;-81
2021/12/29 03:32:52;;;;;;;57.90;46.30;;;;;;;-0.15;74.94;99107.95;108629;1301;21850;-81
2021/12/29 03:35:22;;;;;;;;;;;;;;;-0.12;75.11;99107.37;108771;1301;22100;-82
2021/12/29 03:37:51;;;;;;;62.70;46.80;;;;;;;-0.15;75.08;99108.99;108961;1294;22038;-81
2021/12/29 03:40:25;;;;;;;57.30;45.80;;;;;;;-0.11;75.16;99113.79;109136;1295;22006;-81
2021/12/29 03:42:58;;;;;;;62.60;47.10;;;;;;;-0.03;74.98;99116.89;109581;1289;22003;-84
2021/12/29 03:45:37;;;;;;;58.90;46.60;;;;;;;-0.02;74.84;99116.30;109793;1285;22273;-83
2021/12/29 03:48:13;;;;;;;59.40;47.40;;;;;;;-0.02;74.94;99107.63;110013;1286;22210;-82
2021/12/29 03:50:47;;;;;;;62.00;46.40;;;;;;;0.06;74.94;99110.86;109966;1285;22610;-83
2021/12/29 03:53:20;;;;;;;66.60;49.80;;;;;;;0.10;74.96;99117.23;109973;1285;21975;-84
2021/12/29 03:55:58;;;;;;;58.10;47.40;;;;;;;0.14;74.97;99121.35;110028;1283;22317;-82
2021/12/29 03:58:32;;;;;;;59.00;48.20;;;;;;;0.18;74.96;99120.63;109993;1286;21916;-82
2021/12/29 04:01:07;;;;;;;63.90;50.20;;;;;;;0.19;74.96;99121.52;110029;1286;22370;-81
2021/12/29 04:03:45;;;;;;;66.80;49.50;;;;;;;0.23;74.89;99125.98;109976;1285;21895;-82
2021/12/29 04:06:19;;;;;;;66.50;49.10;;;;;;;0.23;74.69;99126.36;109949;1285;21902;-81
2021/12/29 04:08:56;;;;;;;69.20;49.40;;;;;;;0.17;74.62;99126.98;110056;1283;21886;-81
2021/12/29 04:11:26;;;;;;;67.50;49.80;;;;;;;0.11;74.64;99131.81;110017;1285;22596;-82
2021/12/29 04:13:56;;;;;;;68.40;50.30;;;;;;;0.09;74.70;99140.55;109974;1285;21877;-81
2021/12/29 04:16:28;;;;;;;65.20;48.10;;;;;;;0.08;74.83;99146.15;109995;1285;22020;-82
2021/12/29 04:19:14;;;;;;;64.00;49.10;;;;;;;0.07;74.95;99151.59;110019;1282;22421;-85
2021/12/29 04:21:53;;;;;;;61.10;45.80;;;;;;;0.04;74.90;99164.52;109893;1291;21949;-84
2021/12/29 04:24:33;;;;;;;57.90;45.80;;;;;;;0.01;74.94;99163.58;109789;1292;21899;-83
2021/12/29 04:27:06;;;;;;;61.50;46.80;;;;;;;0.01;75.19;99167.66;109763;1292;21916;-82
2021/12/29 04:29:36;;;;;;;61.90;47.70;;;;;;;0.01;75.20;99166.23;109592;1290;21916;-82
2021/12/29 04:32:06;;;;;;;61.40;46.10;;;;;;;0.02;75.33;99165.01;109727;1291;22771;-82
2021/12/29 04:34:42;;;;;;;63.40;47.60;;;;;;;-0.00;75.32;99163.77;109513;1291;22096;-84
2021/12/29 04:37:13;;;;;;;64.60;46.80;;;;;;;0.02;75.45;99170.03;108980;1297;21980;-84
2021/12/29 04:39:43;;;;;;;60.40;48.20;;;;;;;0.03;75.48;99170.84;109200;1292;21939;-81
2021/12/29 04:42:15;;;;;;;61.50;47.30;;;;;;;0.02;75.56;99167.56;109667;1289;21933;-81
2021/12/29 04:44:44;;;;;;;58.70;47.00;;;;;;;0.08;75.75;99173.48;109790;1289;21976;-82
2021/12/29 04:47:14;;;;;;;66.80;49.30;;;;;;;0.13;75.73;99174.27;109444;1295;21905;-81
2021/12/29 04:49:45;;;;;;;63.20;48.50;;;;;;;0.18;75.71;99181.33;109458;1294;21882;-81
2021/12/29 04:52:15;;;;;;;129.10;79.50;;;;;;;0.19;75.71;99177.55;109632;1295;21879;-81
2021/12/29 04:54:47;;;;;;;68.80;51.20;;;;;;;0.20;75.59;99181.14;109058;1295;22286;-81
2021/12/29 04:57:18;;;;;;;74.60;53.20;;;;;;;0.20;75.64;99184.77;109560;1294;21930;-81
2021/12/29 04:59:48;;;;;;;72.70;52.80;;;;;;;0.19;75.70;99177.34;109759;1294;22001;-81
2021/12/29 05:02:18;;;;;;;63.40;46.80;;;;;;;0.19;75.74;99171.67;109710;1294;22731;-80
2021/12/29 05:04:57;;;;;;;61.00;48.10;;;;;;;0.18;75.75;99177.30;109523;1288;21907;-82
2021/12/29 05:10:23;;;;;;;59.80;48.00;;;;;;;0.18;75.89;99186.70;109638;1295;22431;-83
2021/12/29 05:12:59;;;;;;;62.90;48.30;;;;;;;0.19;75.93;99191.02;108918;1296;21918;-84
2021/12/29 05:15:31;;;;;;;63.50;48.10;;;;;;;0.17;76.05;99185.58;109041;1298;22306;-83
2021/12/29 05:18:04;;;;;;;65.70;49.50;;;;;;;0.12;75.96;99186.84;108911;1298;21852;-84
2021/12/29 05:21:30;;;;;;;76.70;57.60;;;;;;;0.08;76.25;99187.67;108914;1298;22341;-85
2021/12/29 05:24:34;;;;;;;81.40;60.80;;;;;;;0.03;76.29;99186.73;110061;1285;21906;-82
2021/12/29 05:27:09;;;;;;;165.20;133.70;;;;;;;-0.01;76.53;99188.32;110043;1285;21890;-84
2021/12/29 05:29:40;;;;;;;86.00;65.00;;;;;;;0.03;76.68;99199.04;109748;1289;21896;-84
2021/12/29 05:32:25;;;;;;;100.70;79.10;;;;;;;0.03;76.80;99195.74;109787;1289;21994;-86
2021/12/29 05:35:23;;;;;;;;;;;;;;;;;;;;;
2021/12/29 05:38:15;;;;;;;87.00;67.60;;;;;;;0.01;77.10;99192.75;109963;1287;21931;-85
2021/12/29 05:40:54;;;;;;;74.20;58.50;;;;;;;0.06;77.23;99202.75;109422;1291;21978;-85
2021/12/29 05:43:46;;;;;;;76.70;56.00;;;;;;;0.05;77.30;99197.66;109786;1291;22015;-86
2021/12/29 05:50:00;;;;;;;81.40;65.20;;;;;;;0.01;77.55;99195.52;109992;1286;21940;-86
2021/12/29 05:52:53;;;;;;;;;;;;;;;;;;;;;
2021/12/29 05:59:07;;;;;;;88.10;65.70;;;;;;;0.01;77.85;99212.38;109962;1288;22033;-85
2021/12/29 06:05:06;;;;;;;75.70;58.30;;;;;;;0.05;78.08;99226.56;109861;1291;21963;-85
2021/12/29 06:07:38;;;;;;;75.30;61.00;;;;;;;0.04;78.19;99223.65;109784;1292;21995;-84
2021/12/29 06:10:10;;;;;;;76.20;63.10;;;;;;;0.08;78.33;99217.62;109546;1294;21990;-85
2021/12/29 06:12:42;;;;;;;79.20;62.10;;;;;;;0.11;78.33;99218.06;109473;1295;22019;-84
2021/12/29 06:15:33;;;;;;;77.70;60.50;;;;;;;0.14;78.37;99225.79;109573;1294;21948;-87
2021/12/29 06:18:26;;;;;;;82.20;63.10;;;;;;;0.14;78.36;99218.70;109960;1288;21868;-83
2021/12/29 06:20:59;;;;;;;80.70;61.80;;;;;;;0.18;78.54;99223.18;109914;1288;21878;-84
2021/12/29 06:23:50;;;;;;;76.20;59.10;;;;;;;0.23;78.62;99231.24;109962;1288;21884;-84
2021/12/29 06:26:24;;;;;;;93.80;76.10;;;;;;;0.25;78.42;99231.83;109837;1288;21896;-82
2021/12/29 06:29:11;;;;;;;125.20;99.00;;;;;;;0.27;78.65;99234.38;109802;1288;21901;-85
2021/12/29 06:31:52;;;;;;;115.40;76.60;;;;;;;0.32;78.66;99236.74;109931;1287;21881;-84
2021/12/29 06:34:34;;;;;;;132.00;80.90;;;;;;;0.34;78.69;99240.37;109830;1288;21903;-84
2021/12/29 06:37:08;;;;;;;111.60;74.40;;;;;;;0.33;78.59;99238.56;109769;1288;21918;-84
2021/12/29 06:39:46;;;;;;;108.20;73.30;;;;;;;0.32;78.71;99239.51;109948;1288;21875;-84
2021/12/29 06:42:23;;;;;;;76.90;60.10;;;;;;;0.33;78.78;99245.83;109935;1288;21914;-84
2021/12/29 06:45:01;;;;;;;88.50;67.20;;;;;;;0.36;78.92;99246.13;109931;1288;21955;-85
2021/12/29 06:47:32;;;;;;;74.50;62.80;;;;;;;0.38;78.86;99254.42;109549;1293;21909;-83
2021/12/29 06:50:05;;;;;;;92.40;71.20;;;;;;;0.37;78.90;99257.13;109533;1292;21920;-83
2021/12/29 06:52:35;;;;;;;125.00;81.50;;;;;;;0.32;79.01;99257.29;109816;1292;21943;-82
2021/12/29 06:55:20;;;;;;;88.30;65.30;;;;;;;0.37;79.30;99263.18;109780;1292;22413;-83
2021/12/29 06:57:53;;;;;;;85.30;66.40;;;;;;;0.35;79.15;99260.86;109786;1292;21929;-84
2021/12/29 07:00:33;;;;;;;100.40;72.70;;;;;;;0.35;79.11;99264.23;109334;1292;21872;-84
2021/12/29 07:03:03;;;;;;;89.80;71.60;;;;;;;0.36;79.08;99268.41;109559;1292;21988;-83
2021/12/29 07:05:33;;;;;;;81.40;65.90;;;;;;;0.36;79.28;99267.73;109670;1287;22262;-80
2021/12/29 07:08:03;;;;;;;86.80;67.80;;;;;;;0.37;79.12;99265.23;109907;1288;22197;-82
2021/12/29 07:10:33;;;;;;;73.00;59.00;;;;;;;0.35;79.27;99271.41;109885;1288;21917;-81
2021/12/29 07:13:06;;;;;;;75.90;61.20;;;;;;;0.39;79.46;99280.27;109865;1288;21909;-81
2021/12/29 07:15:37;;;;;;;107.20;72.30;;;;;;;0.47;79.54;99276.86;109914;1288;21978;-81
2021/12/29 07:18:07;;;;;;;122.00;80.00;;;;;;;0.57;79.55;99288.48;109807;1289;21930;-82
2021/12/29 07:20:40;;;;;;;114.60;77.60;;;;;;;0.63;79.66;99299.42;109823;1288;21984;-83
2021/12/29 07:23:12;;;;;;;86.60;68.00;;;;;;;0.68;79.65;99296.77;109723;1288;21969;-81
2021/12/29 07:25:42;;;;;;;83.50;64.40;;;;;;;0.76;79.41;99305.21;109823;1288;21811;-81
2021/12/29 07:28:14;;;;;;;79.10;62.50;;;;;;;0.79;79.39;99316.97;109865;1288;21920;-82
2021/12/29 07:30:44;;;;;;;80.80;66.70;;;;;;;0.79;79.37;99320.77;109738;1288;22261;-78
2021/12/29 07:33:14;;;;;;;78.80;64.40;;;;;;;0.80;79.23;99322.64;109961;1288;22444;-78
2021/12/29 07:35:44;;;;;;;82.80;65.50;;;;;;;0.76;79.21;99314.46;109903;1288;21907;-76
2021/12/29 07:38:14;;;;;;;80.30;61.80;;;;;;;0.71;79.15;99321.56;109961;1288;22004;-76
2021/12/29 07:40:43;;;;;;;85.80;64.80;;;;;;;0.71;79.19;99332.86;109867;1288;21872;-77
2021/12/29 07:43:13;;;;;;;85.80;67.40;;;;;;;0.70;79.29;99336.41;109823;1289;21852;-77
2021/12/29 07:45:44;;;;;;;94.30;69.30;;;;;;;0.70;79.36;99331.42;109924;1287;22294;-78
2021/12/29 07:48:16;;;;;;;131.80;85.00;;;;;;;0.73;79.62;99336.84;109900;1288;22111;-79
2021/12/29 07:50:46;;;;;;;110.40;80.40;;;;;;;0.75;79.56;99339.61;109926;1288;22287;-79
2021/12/29 07:53:15;;;;;;;102.80;76.50;;;;;;;0.78;79.64;99343.05;109862;1288;21945;-79
2021/12/29 07:55:45;;;;;;;109.10;77.50;;;;;;;0.80;79.53;99347.55;109639;1292;21880;-78
2021/12/29 07:58:15;;;;;;;107.80;81.80;;;;;;;0.80;79.60;99346.00;109516;1292;22299;-77
2021/12/29 08:00:47;;;;;;;201.50;131.60;;;;;;;0.81;79.63;99346.27;108868;1298;21936;-78
2021/12/29 08:03:20;;;;;;;204.50;136.30;;;;;;;0.84;79.73;99345.98;108313;1304;21913;-78
2021/12/29 08:05:50;;;;;;;144.50;110.60;;;;;;;0.86;79.71;99352.60;108498;1304;22072;-77
2021/12/29 08:08:20;;;;;;;136.00;101.90;;;;;;;0.89;79.80;99351.95;108596;1303;22408;-75
2021/12/29 08:10:53;;;;;;;114.70;89.10;;;;;;;0.93;79.85;99356.09;108003;1306;21921;-76
2021/12/29 08:13:27;;;;;;;151.60;120.50;;;;;;;0.97;79.77;99356.48;108065;1304;22034;-78
2021/12/29 08:15:58;;;;;;;133.50;106.00;;;;;;;0.99;79.60;99363.09;108322;1305;21962;-77
2021/12/29 08:18:28;;;;;;;163.50;129.50;;;;;;;1.02;79.58;99372.35;108430;1301;21904;-78
2021/12/29 08:20:57;;;;;;;324.20;214.60;;;;;;;1.01;79.71;99365.99;108744;1294;21929;-78
2021/12/29 08:23:27;;;;;;;86.40;70.70;;;;;;;1.06;79.65;99369.96;109453;1294;21937;-77
2021/12/29 08:25:59;;;;;;;85.20;69.20;;;;;;;1.10;79.65;99376.20;109479;1294;22015;-76
2021/12/29 08:28:29;;;;;;;89.20;68.70;;;;;;;1.08;79.67;99374.13;109575;1288;21997;-77
2021/12/29 08:31:03;;;;;;;80.50;68.80;;;;;;;1.09;79.63;99376.80;109923;1288;21915;-78
2021/12/29 08:33:37;;;;;;;83.00;68.50;;;;;;;1.10;79.62;99379.50;109448;1294;22059;-81
2021/12/29 08:36:08;;;;;;;84.90;69.00;;;;;;;1.10;79.72;99379.13;109273;1294;212229;-80
2021/12/29 08:38:44;;;;;;;87.60;68.30;;;;;;;1.10;79.60;99382.27;109279;1294;21935;-79
2021/12/29 08:41:14;;;;;;;86.70;69.80;;;;;;;1.07;79.68;99376.68;109478;1294;21899;-80
2021/12/29 08:43:48;;;;;;;82.70;67.10;;;;;;;1.08;79.68;99380.55;109498;1294;21905;-80
2021/12/29 08:46:25;;;;;;;88.60;71.00;;;;;;;1.09;79.68;99392.60;109154;1294;22335;-80
2021/12/29 08:49:05;;;;;;;101.60;80.70;;;;;;;1.08;79.63;99394.94;109493;1294;22107;-79
2021/12/29 08:51:34;;;;;;;;;;;;;;;1.06;79.71;99394.19;109635;1291;21938;-79
2021/12/29 08:54:07;;;;;;;82.50;67.90;;;;;;;1.01;79.80;99402.63;109927;1289;21889;-79
2021/12/29 08:56:39;;;;;;;107.80;87.80;;;;;;;1.04;80.05;99408.59;109915;1288;21918;-80
2021/12/29 08:59:12;;;;;;;132.70;102.30;;;;;;;1.06;79.96;99405.80;109958;1288;21887;-79
2021/12/29 09:01:44;;;;;;;143.20;110.60;;;;;;;1.10;80.00;99408.27;109924;1289;21868;-80
2021/12/29 09:04:15;;;;;;;93.70;77.10;;;;;;;1.13;79.95;99410.41;109906;1288;22346;-80
2021/12/29 09:06:47;;;;;;;88.40;76.30;;;;;;;1.17;79.88;99416.20;109484;1294;21930;-80
2021/12/29 09:09:19;;;;;;;89.30;72.70;;;;;;;1.19;79.89;99417.95;109679;1294;21890;-80
2021/12/29 09:11:50;;;;;;;;;;;;;;;1.20;79.89;99416.05;109473;1294;22410;-80
2021/12/29 09:14:27;;;;;;;92.40;74.60;;;;;;;1.13;79.98;99414.08;109720;1294;21891;-79
2021/12/29 09:17:04;;;;;;;107.40;86.60;;;;;;;1.17;80.02;99424.86;109054;1299;21893;-81
2021/12/29 09:19:41;;;;;;;99.70;86.50;;;;;;;1.20;80.02;99422.52;108871;1298;22677;-80
2021/12/29 09:22:13;;;;;;;85.90;73.30;;;;;;;1.25;80.04;99423.13;108784;1298;21923;-80
2021/12/29 09:24:51;;;;;;;82.10;70.70;;;;;;;1.30;80.04;99428.10;108616;1294;21803;-80
2021/12/29 09:27:25;;;;;;;84.20;67.90;;;;;;;1.32;79.99;99430.34;109230;1294;22365;-80
2021/12/29 09:29:55;;;;;;;96.00;77.20;;;;;;;1.36;79.97;99428.21;109507;1294;21998;-80
2021/12/29 09:32:30;;;;;;;94.40;78.10;;;;;;;1.45;80.14;99437.20;108952;1300;22087;-80
2021/12/29 09:35:03;;;;;;;84.10;71.50;;;;;;;1.52;80.07;99437.98;108890;1294;22270;-81
2021/12/29 09:37:38;;;;;;;90.90;74.40;;;;;;;1.60;80.10;99431.55;109493;1294;21966;-80
2021/12/29 09:40:11;;;;;;;90.50;79.40;;;;;;;1.68;80.22;99429.95;109697;1291;22203;-80
2021/12/29 09:42:45;;;;;;;83.30;70.20;;;;;;;1.78;80.11;99422.85;109174;1293;21845;-80
2021/12/29 09:45:19;;;;;;;92.30;78.40;;;;;;;1.82;79.85;99423.35;109782;1291;22016;-80
2021/12/29 09:47:55;;;;;;;96.60;82.00;;;;;;;1.83;79.57;99423.80;109653;1294;21882;-81
2021/12/29 09:50:26;;;;;;;108.20;89.10;;;;;;;1.85;79.57;99421.69;109729;1291;21877;-81
2021/12/29 09:52:59;;;;;;;111.20;90.90;;;;;;;1.92;79.51;99423.59;109766;1291;21940;-81
2021/12/29 09:55:28;;;;;;;145.50;110.40;;;;;;;1.97;79.65;99418.45;109839;1288;21996;-81
2021/12/29 09:58:08;;;;;;;110.70;86.20;;;;;;;2.06;79.56;99420.06;109806;1289;21928;-80
2021/12/29 10:00:48;;;;;;;126.40;102.10;;;;;;;2.09;79.56;99420.26;109944;1286;21986;-80
2021/12/29 10:03:23;;;;;;;106.80;92.70;;;;;;;2.16;79.43;99422.33;109821;1288;21891;-79
2021/12/29 10:05:57;;;;;;;92.30;79.80;;;;;;;2.19;79.45;99417.16;109881;1288;21851;-80
2021/12/29 10:08:38;;;;;;;101.50;77.60;;;;;;;2.22;79.19;99415.88;109911;1286;21888;-80
2021/12/29 10:11:18;;;;;;;98.10;75.50;;;;;;;2.27;79.10;99422.02;109223;1295;22010;-80
2021/12/29 10:13:54;;;;;;;92.70;77.20;;;;;;;2.28;79.07;99411.61;109490;1294;21838;-79
2021/12/29 10:16:31;;;;;;;83.30;71.40;;;;;;;2.29;78.98;99414.67;108720;1300;21919;-79
2021/12/29 10:19:09;;;;;;;102.40;86.80;;;;;;;2.28;78.92;99415.63;108725;1300;21877;-79
2021/12/29 10:21:49;;;;;;;87.00;75.20;;;;;;;2.27;78.85;99415.39;108271;1304;21929;-79
2021/12/29 10:24:20;;;;;;;125.40;93.50;;;;;;;2.27;78.77;99420.23;108307;1303;21974;-81
2021/12/29 10:26:57;;;;;;;98.10;83.00;;;;;;;2.28;78.91;99422.79;107795;1307;21990;-81
2021/12/29 10:29:27;;;;;;;89.40;77.20;;;;;;;2.32;78.93;99419.42;107560;1310;22024;-81
2021/12/29 10:32:02;;;;;;;84.10;73.80;;;;;;;2.37;78.98;99421.45;107745;1309;21888;-80
2021/12/29 10:34:41;;;;;;;88.00;74.90;;;;;;;2.45;79.12;99421.30;107574;1309;22366;-82
2021/12/29 10:37:13;;;;;;;106.10;87.20;;;;;;;2.50;78.80;99419.23;107322;1311;21914;-80
2021/12/29 10:40:19;;;;;;;112.20;89.60;;;;;;;2.53;78.83;99422.29;107612;1307;21910;-80
2021/12/29 10:43:00;;;;;;;99.40;80.90;;;;;;;2.56;78.73;99423.17;107694;1309;22392;-80
2021/12/29 10:45:40;;;;;;;111.70;96.90;;;;;;;2.57;78.58;99426.56;107782;1306;22265;-80
2021/12/29 10:48:21;;;;;;;94.30;81.50;;;;;;;2.60;78.63;99424.96;108186;1303;22279;-80
2021/12/29 10:51:06;;;;;;;122.40;94.80;;;;;;;2.63;78.50;99423.67;108683;1300;21915;-81
2021/12/29 10:53:47;;;;;;;104.00;81.60;;;;;;;2.64;78.37;99428.05;108449;1303;21994;-80
2021/12/29 10:56:25;;;;;;;98.40;74.20;;;;;;;2.69;78.50;99429.85;108860;1297;21909;-81
2021/12/29 10:58:56;;;;;;;88.70;69.60;;;;;;;2.73;78.52;99423.23;109009;1297;21900;-80
2021/12/29 11:01:41;;;;;;;82.90;65.00;;;;;;;2.76;78.47;99421.05;108953;1297;22365;-80
2021/12/29 11:04:17;;;;;;;84.50;67.50;;;;;;;2.86;78.53;99425.41;108206;1302;21908;-80
2021/12/29 11:06:56;;;;;;;;;;;;;;;2.93;78.65;99427.34;108421;1303;21990;-80
2021/12/29 11:09:35;;;;;;;95.10;73.20;;;;;;;2.94;78.95;99422.86;108569;1302;21973;-80
2021/12/29 11:12:15;;;;;;;88.60;68.90;;;;;;;3.01;78.82;99419.25;108300;1303;21921;-80
2021/12/29 11:14:44;;;;;;;94.70;75.10;;;;;;;3.08;78.66;99414.44;108304;1302;22390;-82
2021/12/29 11:17:23;;;;;;;117.30;84.30;;;;;;;3.20;78.57;99422.73;108336;1303;22418;-81
2021/12/29 11:19:58;;;;;;;122.40;86.00;;;;;;;3.30;78.55;99421.81;109043;1294;21876;-81
2021/12/29 11:22:30;;;;;;;111.30;77.50;;;;;;;3.38;78.45;99419.33;109213;1294;21903;-80
2021/12/29 11:25:08;;;;;;;118.40;83.30;;;;;;;3.44;78.22;99419.08;109493;1292;21962;-81
2021/12/29 11:27:39;;;;;;;134.70;92.20;;;;;;;3.50;78.13;99427.92;109479;1294;21827;-81
2021/12/29 11:30:16;;;;;;;134.60;94.50;;;;;;;3.54;77.90;99428.90;109267;1292;21859;-81
2021/12/29 11:32:49;;;;;;;;;;;;;;;3.62;77.67;99439.29;108785;1297;21989;-81
2021/12/29 11:35:23;;;;;;;142.10;104.70;;;;;;;3.55;77.28;99434.22;109037;1298;22355;-80
2021/12/29 11:38:00;;;;;;;184.70;131.80;;;;;;;3.56;77.25;99439.59;109005;1298;21897;-81
2021/12/29 11:40:38;;;;;;;213.70;143.10;;;;;;;3.55;77.18;99438.21;109136;1294;21943;-82
2021/12/29 11:43:10;;;;;;;266.80;171.70;;;;;;;3.56;77.01;99447.16;109018;1297;21830;-82
2021/12/29 11:45:42;;;;;;;244.50;166.60;;;;;;;3.55;76.93;99446.83;109027;1298;21900;-81
2021/12/29 11:48:26;;;;;;;241.60;163.20;;;;;;;3.55;76.94;99451.63;108971;1300;22088;-82
2021/12/29 11:51:03;;;;;;;200.40;146.20;;;;;;;3.59;76.92;99453.13;109417;1292;22002;-83
2021/12/29 11:57:46;;;;;;;166.50;125.60;;;;;;;3.62;76.70;99461.23;109798;1294;21896;-84
2021/12/29 12:00:23;;;;;;;147.10;116.90;;;;;;;3.69;76.83;99461.66;109886;1291;21940;-83
2021/12/29 12:03:14;;;;;;;116.70;100.80;;;;;;;3.78;76.67;99458.00;109768;1292;21922;-82
2021/12/29 12:05:48;;;;;;;92.70;77.50;;;;;;;3.83;76.53;99452.30;109699;1292;21900;-82
2021/12/29 12:08:24;;;;;;;102.10;84.20;;;;;;;3.89;76.39;99456.45;109856;1287;22183;-82
2021/12/29 12:10:54;;;;;;;152.60;114.10;;;;;;;3.95;76.27;99456.88;109713;1292;21974;-82
2021/12/29 12:13:30;;;;;;;319.20;214.70;;;;;;;3.98;76.04;99463.02;109106;1298;21974;-82
2021/12/29 12:16:08;;;;;;;141.40;104.80;;;;;;;3.98;75.71;99466.52;109047;1297;21985;-82
2021/12/29 12:18:57;;;;;;;152.70;119.40;;;;;;;3.96;75.49;99468.29;108513;1303;21933;-82
2021/12/29 12:21:35;;;;;;;113.70;94.00;;;;;;;3.94;75.30;99473.55;108553;1301;22408;-82
2021/12/29 12:24:33;;;;;;;126.20;96.50;;;;;;;3.92;75.31;99475.11;108096;1306;21991;-81
2021/12/29 12:27:16;;;;;;;121.80;96.70;;;;;;;3.95;75.61;99476.70;107399;1315;22266;-82
2021/12/29 12:30:07;;;;;;;106.70;86.70;;;;;;;4.00;75.55;99483.05;107539;1312;22030;-81
2021/12/29 12:33:10;;;;;;;92.30;76.60;;;;;;;4.03;75.45;99487.19;107994;1309;21987;-84
2021/12/29 12:35:59;;;;;;;91.20;78.40;;;;;;;4.03;75.42;99483.29;108129;1302;21971;-81
2021/12/29 12:38:35;;;;;;;63.90;55.80;;;;;;;4.07;75.59;99482.62;108768;1298;21998;-82
2021/12/29 12:41:19;;;;;;;68.80;60.30;;;;;;;4.09;75.47;99487.05;108659;1299;21964;-81
2021/12/29 12:43:57;;;;;;;82.00;71.10;;;;;;;4.10;75.23;99476.55;108744;1294;21964;-82
2021/12/29 12:46:31;;;;;;;93.60;78.40;;;;;;;4.08;75.12;99483.67;109942;1288;21921;-82